Time;durP1;ratioP1;P1;durP2;ratioP2;P2;SDS_P1;SDS_P2;PMS_P1;PMS_P2;Temp;Humidity;BMP_temperature;BMP_pressure;BME280_temperature;BME280_humidity;BME280_pressure;Samples;Min_cycle;Max_cycle;Signal;HPM_P1;HPM_P2
2023/03/27 00:01:52;;;;;;;;;;;2.50;99.90;;;;;;5142044;27;19980;-34
2023/03/27 00:04:20;;;;;;;;;;;2.40;99.90;;;;;;5119498;27;19968;-35
2023/03/27 00:06:47;;;;;;;;;;;2.40;99.90;;;;;;5140182;27;20050;-34
2023/03/27 00:09:15;;;;;;;;;;;2.40;99.90;;;;;;5142866;27;19976;-34
2023/03/27 00:11:42;;;;;;;;;;;2.40;99.90;;;;;;5156092;27;19931;-34
2023/03/27 00:14:09;;;;;;;;;;;2.40;99.90;;;;;;5122493;27;19927;-35
2023/03/27 00:16:36;;;;;;;;;;;2.40;99.90;;;;;;5161930;27;19988;-35
2023/03/27 00:19:04;;;;;;;;;;;2.40;99.90;;;;;;5118026;27;19978;-34
2023/03/27 00:21:31;;;;;;;;;;;2.30;99.90;;;;;;5137352;27;19931;-34
2023/03/27 00:23:59;;;;;;;;;;;2.30;99.90;;;;;;5151955;27;20002;-35
2023/03/27 00:26:29;;;;;;;;;;;2.30;99.90;;;;;;5153528;27;19924;-35
2023/03/27 00:28:56;;;;;;;;;;;2.30;99.90;;;;;;5163485;27;20416;-35
2023/03/27 00:31:22;;;;;;;;;;;2.30;99.90;;;;;;5154448;27;20329;-35
2023/03/27 00:33:49;;;;;;;;;;;2.30;99.90;;;;;;5146002;27;20419;-35
2023/03/27 00:36:17;;;;;;;;;;;2.20;99.90;;;;;;5151824;27;19928;-35
2023/03/27 00:38:44;;;;;;;;;;;2.20;99.90;;;;;;5117542;27;19927;-35
2023/03/27 00:41:11;;;;;;;;;;;2.20;99.90;;;;;;5161946;27;19973;-35
2023/03/27 00:43:39;;;;;;;;;;;2.20;99.90;;;;;;5138205;27;19923;-35
2023/03/27 00:46:07;;;;;;;;;;;2.20;99.90;;;;;;5135483;27;19923;-35
2023/03/27 00:48:34;;;;;;;;;;;2.20;99.90;;;;;;5136280;27;19927;-35
2023/03/27 00:51:01;;;;;;;;;;;2.10;99.90;;;;;;5141123;27;19923;-35
2023/03/27 00:53:29;;;;;;;;;;;2.10;99.90;;;;;;5117793;27;19955;-35
2023/03/27 00:55:57;;;;;;;;;;;2.20;99.90;;;;;;5119317;27;19966;-35
2023/03/27 00:58:25;;;;;;;;;;;2.10;99.90;;;;;;5130841;27;19976;-36
2023/03/27 01:00:52;;;;;;;;;;;2.00;99.90;;;;;;5135995;27;19924;-35
2023/03/27 01:03:19;;;;;;;;;;;2.10;99.90;;;;;;5151045;27;19931;-34
2023/03/27 01:05:46;;;;;;;;;;;2.00;99.90;;;;;;5116805;27;19923;-35
2023/03/27 01:08:13;;;;;;;;;;;2.00;99.90;;;;;;5150162;27;19923;-35
2023/03/27 01:10:44;;;;;;;;;;;2.00;99.90;;;;;;5140715;27;19927;-35
2023/03/27 01:13:13;;;;;;;;;;;2.00;99.90;;;;;;5153255;27;19923;-35
2023/03/27 01:15:40;;;;;;;;;;;1.90;99.90;;;;;;5170959;27;19927;-35
2023/03/27 01:18:14;;;;;;;;;;;1.90;99.90;;;;;;5151435;27;19989;-35
2023/03/27 01:20:46;;;;;;;;;;;1.90;99.90;;;;;;5144159;27;19923;-35
2023/03/27 01:23:34;;;;;;;;;;;1.80;99.90;;;;;;5125434;27;19945;-35
2023/03/27 01:26:10;;;;;;;;;;;1.90;99.90;;;;;;5123040;27;19979;-35
2023/03/27 01:28:42;;;;;;;;;;;1.80;99.90;;;;;;5152022;27;20290;-35
2023/03/27 01:31:13;;;;;;;;;;;1.90;99.90;;;;;;5143156;27;19927;-35
2023/03/27 01:33:47;;;;;;;;;;;1.80;99.90;;;;;;5147807;27;19927;-36
2023/03/27 01:36:18;;;;;;;;;;;1.80;99.90;;;;;;5140434;27;19979;-35
2023/03/27 01:38:58;;;;;;;;;;;1.80;99.90;;;;;;5150241;27;19939;-36
2023/03/27 01:41:25;;;;;;;;;;;1.80;99.90;;;;;;5139934;27;20336;-36
2023/03/27 01:43:53;;;;;;;;;;;1.80;99.90;;;;;;5119541;27;20297;-36
2023/03/27 01:46:20;;;;;;;;;;;1.80;99.90;;;;;;5140931;27;19931;-36
2023/03/27 01:48:48;;;;;;;;;;;1.80;99.90;;;;;;5149505;27;19931;-36
2023/03/27 01:51:15;;;;;;;;;;;1.80;99.90;;;;;;5148671;27;19931;-36
2023/03/27 01:53:42;;;;;;;;;;;1.80;99.90;;;;;;5137904;27;19931;-36
2023/03/27 01:56:12;;;;;;;;;;;1.80;99.90;;;;;;5135543;27;20447;-36
2023/03/27 01:58:40;;;;;;;;;;;1.80;99.90;;;;;;5143403;27;19931;-36
2023/03/27 02:01:06;;;;;;;;;;;1.70;99.90;;;;;;5146752;27;19992;-37
2023/03/27 02:03:33;;;;;;;;;;;1.70;99.90;;;;;;5121681;27;19966;-36
2023/03/27 02:06:01;;;;;;;;;;;1.80;99.90;;;;;;5158384;27;19970;-36
2023/03/27 02:08:30;;;;;;;;;;;1.70;99.90;;;;;;5151855;27;19976;-37
2023/03/27 02:10:56;;;;;;;;;;;1.70;99.90;;;;;;5135921;27;20003;-36
2023/03/27 02:13:25;;;;;;;;;;;1.70;99.90;;;;;;5150484;27;19927;-36
2023/03/27 02:15:52;;;;;;;;;;;1.70;99.90;;;;;;5146978;27;19927;-36
2023/03/27 02:18:19;;;;;;;;;;;1.60;99.90;;;;;;5153338;27;20362;-36
2023/03/27 02:20:46;;;;;;;;;;;1.60;99.90;;;;;;5118884;27;19987;-36
2023/03/27 02:23:13;;;;;;;;;;;1.60;99.90;;;;;;5134975;27;19930;-36
2023/03/27 02:25:39;;;;;;;;;;;1.60;99.90;;;;;;5119953;27;19928;-36
2023/03/27 02:28:20;;;;;;;;;;;1.60;99.90;;;;;;5133474;27;19966;-36
2023/03/27 02:30:51;;;;;;;;;;;1.60;99.90;;;;;;5146724;27;20378;-37
2023/03/27 02:33:18;;;;;;;;;;;1.60;99.90;;;;;;5133670;27;19924;-36
2023/03/27 02:35:46;;;;;;;;;;;1.60;99.90;;;;;;5146403;27;20332;-37
2023/03/27 02:38:16;;;;;;;;;;;1.60;99.90;;;;;;5136567;27;20010;-36
2023/03/27 02:40:45;;;;;;;;;;;1.50;99.90;;;;;;5134991;27;20014;-36
2023/03/27 02:43:12;;;;;;;;;;;1.60;99.90;;;;;;5137606;27;19968;-36
2023/03/27 02:45:50;;;;;;;;;;;1.60;99.90;;;;;;5127827;27;20301;-36
2023/03/27 02:48:17;;;;;;;;;;;1.60;99.90;;;;;;5131046;28;19923;-37
2023/03/27 02:50:44;;;;;;;;;;;1.60;99.90;;;;;;5142430;27;20292;-36
2023/03/27 02:53:11;;;;;;;;;;;1.60;99.90;;;;;;5120996;27;19968;-36
2023/03/27 02:55:38;;;;;;;;;;;1.60;99.90;;;;;;5150142;27;20293;-36
2023/03/27 02:58:06;;;;;;;;;;;1.60;99.90;;;;;;5151935;27;19969;-36
2023/03/27 03:00:36;;;;;;;;;;;1.60;99.90;;;;;;5140819;27;19923;-36
2023/03/27 03:03:05;;;;;;;;;;;1.60;99.90;;;;;;5114821;27;19923;-37
2023/03/27 03:05:32;;;;;;;;;;;1.60;99.90;;;;;;5143196;27;20558;-37
2023/03/27 03:07:59;;;;;;;;;;;1.60;99.90;;;;;;5123813;27;19970;-37
2023/03/27 03:10:26;;;;;;;;;;;1.60;99.90;;;;;;5143108;27;19924;-37
2023/03/27 03:12:53;;;;;;;;;;;1.60;99.90;;;;;;5148504;27;19924;-37
2023/03/27 03:15:19;;;;;;;;;;;1.70;99.90;;;;;;5142736;27;20351;-37
2023/03/27 03:17:46;;;;;;;;;;;1.60;99.90;;;;;;5127348;28;19924;-36
2023/03/27 03:20:15;;;;;;;;;;;1.70;99.90;;;;;;5138588;27;20398;-36
2023/03/27 03:22:42;;;;;;;;;;;1.60;99.90;;;;;;5114978;28;19928;-36
2023/03/27 03:25:09;;;;;;;;;;;1.60;99.90;;;;;;5164711;27;19962;-36
2023/03/27 03:27:36;;;;;;;;;;;1.60;99.90;;;;;;5117076;27;19935;-36
2023/03/27 03:30:03;;;;;;;;;;;1.60;99.90;;;;;;5156937;27;19967;-36
2023/03/27 03:32:29;;;;;;;;;;;1.60;99.90;;;;;;5126607;27;20335;-36
2023/03/27 03:34:56;;;;;;;;;;;1.60;99.90;;;;;;5136430;27;19928;-35
2023/03/27 03:37:27;;;;;;;;;;;1.70;99.90;;;;;;5153121;27;19923;-35
2023/03/27 03:39:54;;;;;;;;;;;1.60;99.90;;;;;;5118091;27;19923;-36
2023/03/27 03:42:20;;;;;;;;;;;1.60;99.90;;;;;;5146683;27;19930;-36
2023/03/27 03:44:47;;;;;;;;;;;1.60;99.90;;;;;;5165128;27;19966;-36
2023/03/27 03:47:14;;;;;;;;;;;1.60;99.90;;;;;;5143593;27;19924;-35
2023/03/27 03:49:41;;;;;;;;;;;1.70;99.90;;;;;;5138027;27;20313;-36
2023/03/27 03:52:08;;;;;;;;;;;1.70;99.90;;;;;;5149847;27;19934;-36
2023/03/27 03:54:37;;;;;;;;;;;1.60;99.90;;;;;;5144210;27;19975;-35
2023/03/27 03:57:04;;;;;;;;;;;1.70;99.90;;;;;;5155171;27;19923;-36
2023/03/27 03:59:30;;;;;;;;;;;1.70;99.90;;;;;;5171703;27;19923;-36
2023/03/27 04:01:57;;;;;;;;;;;1.70;99.90;;;;;;5151117;27;19927;-36
2023/03/27 04:04:24;;;;;;;;;;;1.70;99.90;;;;;;5121657;27;19970;-36
2023/03/27 04:06:51;;;;;;;;;;;1.70;99.90;;;;;;5161658;27;19923;-36
2023/03/27 04:09:18;;;;;;;;;;;1.60;99.90;;;;;;5153188;27;19923;-36
2023/03/27 04:11:47;;;;;;;;;;;1.60;99.90;;;;;;5153169;27;19930;-36
2023/03/27 04:14:13;;;;;;;;;;;1.60;99.90;;;;;;5136271;27;20053;-37
2023/03/27 04:16:40;;;;;;;;;;;1.60;99.90;;;;;;5138679;27;20279;-36
2023/03/27 04:19:07;;;;;;;;;;;1.60;99.90;;;;;;5162198;27;19924;-36
2023/03/27 04:21:33;;;;;;;;;;;1.60;99.90;;;;;;5152255;27;19983;-36
2023/03/27 04:24:02;;;;;;;;;;;1.60;99.90;;;;;;5137671;27;19928;-37
2023/03/27 04:26:28;;;;;;;;;;;1.50;99.90;;;;;;5156711;27;20018;-37
2023/03/27 04:28:56;;;;;;;;;;;1.50;99.90;;;;;;5152568;27;19946;-37
2023/03/27 04:31:23;;;;;;;;;;;1.50;99.90;;;;;;5153021;27;20333;-36
2023/03/27 04:33:50;;;;;;;;;;;1.50;99.90;;;;;;5153028;27;19970;-36
2023/03/27 04:36:17;;;;;;;;;;;1.50;99.90;;;;;;5171091;27;19923;-36
2023/03/27 04:38:44;;;;;;;;;;;1.50;99.90;;;;;;5155369;27;20331;-36
2023/03/27 04:41:11;;;;;;;;;;;1.50;99.90;;;;;;5154544;27;19923;-36
2023/03/27 04:43:38;;;;;;;;;;;1.50;99.90;;;;;;5165352;27;20361;-36
2023/03/27 04:46:07;;;;;;;;;;;1.50;99.90;;;;;;5135888;27;20418;-37
2023/03/27 04:48:36;;;;;;;;;;;1.50;99.90;;;;;;5122252;27;19977;-36
2023/03/27 04:51:03;;;;;;;;;;;1.40;99.90;;;;;;5128178;27;19923;-36
2023/03/27 04:53:31;;;;;;;;;;;1.40;99.90;;;;;;5130664;27;19923;-36
2023/03/27 04:55:57;;;;;;;;;;;1.40;99.90;;;;;;5116438;27;19949;-36
2023/03/27 04:58:25;;;;;;;;;;;1.40;99.90;;;;;;5144963;27;19976;-35
2023/03/27 05:00:54;;;;;;;;;;;1.40;99.90;;;;;;5132422;27;19967;-36
2023/03/27 05:03:22;;;;;;;;;;;1.40;99.90;;;;;;5153916;27;19923;-36
2023/03/27 05:05:49;;;;;;;;;;;1.40;99.90;;;;;;5135312;27;20005;-35
2023/03/27 05:08:16;;;;;;;;;;;1.40;99.90;;;;;;5154499;27;19922;-36
2023/03/27 05:10:43;;;;;;;;;;;1.40;99.90;;;;;;5155688;27;19986;-36
2023/03/27 05:13:10;;;;;;;;;;;1.40;99.90;;;;;;5119439;27;19923;-36
2023/03/27 05:15:37;;;;;;;;;;;1.40;99.90;;;;;;5153949;27;19923;-36
2023/03/27 05:18:05;;;;;;;;;;;1.30;99.90;;;;;;5143201;27;19922;-36
2023/03/27 05:20:33;;;;;;;;;;;1.40;99.90;;;;;;5167269;27;20387;-36
2023/03/27 05:23:00;;;;;;;;;;;1.40;99.90;;;;;;5143319;27;19929;-36
2023/03/27 05:25:27;;;;;;;;;;;1.40;99.90;;;;;;5153181;27;20010;-36
2023/03/27 05:27:54;;;;;;;;;;;1.40;99.90;;;;;;5147357;27;19923;-36
2023/03/27 05:30:21;;;;;;;;;;;1.40;99.90;;;;;;5167148;27;20453;-36
2023/03/27 05:32:48;;;;;;;;;;;1.40;99.90;;;;;;5133056;27;19927;-36
2023/03/27 05:35:16;;;;;;;;;;;1.50;99.90;;;;;;5135086;27;19983;-36
2023/03/27 05:37:47;;;;;;;;;;;1.50;99.90;;;;;;5148471;27;19968;-36
2023/03/27 05:40:14;;;;;;;;;;;1.50;99.90;;;;;;5153014;27;20271;-36
2023/03/27 05:42:42;;;;;;;;;;;1.50;99.90;;;;;;5151613;27;20361;-36
2023/03/27 05:45:09;;;;;;;;;;;1.50;99.90;;;;;;5119145;27;20020;-36
2023/03/27 05:47:42;;;;;;;;;;;1.50;99.90;;;;;;5120748;27;20005;-36
2023/03/27 05:50:09;;;;;;;;;;;1.50;99.90;;;;;;5151312;27;20275;-37
2023/03/27 05:52:36;;;;;;;;;;;1.50;99.90;;;;;;5125457;27;20015;-37
2023/03/27 05:55:05;;;;;;;;;;;1.50;99.90;;;;;;5135781;27;19927;-36
2023/03/27 05:57:32;;;;;;;;;;;1.50;99.90;;;;;;5139142;27;19927;-37
2023/03/27 05:59:59;;;;;;;;;;;1.50;99.90;;;;;;5124501;27;19966;-37
2023/03/27 06:02:26;;;;;;;;;;;1.50;99.90;;;;;;5130041;27;20039;-36
2023/03/27 06:04:53;;;;;;;;;;;1.50;99.90;;;;;;5147418;27;19923;-36
2023/03/27 06:07:19;;;;;;;;;;;1.60;99.90;;;;;;5138159;27;19980;-36
2023/03/27 06:09:46;;;;;;;;;;;1.60;99.90;;;;;;5148159;27;20055;-36
2023/03/27 06:12:15;;;;;;;;;;;1.60;99.90;;;;;;5142390;27;19923;-36
2023/03/27 06:14:42;;;;;;;;;;;1.70;99.90;;;;;;5126396;27;19927;-36
2023/03/27 06:17:08;;;;;;;;;;;1.70;99.90;;;;;;5130406;27;20271;-36
2023/03/27 06:19:35;;;;;;;;;;;1.80;99.90;;;;;;5150369;27;20403;-36
2023/03/27 06:22:02;;;;;;;;;;;1.80;99.90;;;;;;5138234;27;19987;-36
2023/03/27 06:24:28;;;;;;;;;;;1.80;99.90;;;;;;5140707;27;19968;-36
2023/03/27 06:26:56;;;;;;;;;;;1.90;99.90;;;;;;5156103;27;19975;-36
2023/03/27 06:29:27;;;;;;;;;;;1.90;99.90;;;;;;5143699;27;19927;-36
2023/03/27 06:31:56;;;;;;;;;;;2.00;99.90;;;;;;5144772;27;20477;-36
2023/03/27 06:34:23;;;;;;;;;;;2.10;99.90;;;;;;5137845;27;19976;-36
2023/03/27 06:36:50;;;;;;;;;;;2.10;99.90;;;;;;5127125;27;19923;-36
2023/03/27 06:39:16;;;;;;;;;;;2.20;99.90;;;;;;5149721;27;19935;-36
2023/03/27 06:41:43;;;;;;;;;;;2.20;99.90;;;;;;5121033;27;19971;-37
2023/03/27 06:44:09;;;;;;;;;;;2.20;99.90;;;;;;5133353;27;19923;-36
2023/03/27 06:46:37;;;;;;;;;;;2.20;99.90;;;;;;5141244;27;19923;-37
2023/03/27 06:49:04;;;;;;;;;;;2.20;99.90;;;;;;5118106;27;19927;-37
2023/03/27 06:51:31;;;;;;;;;;;2.30;99.90;;;;;;5118648;27;20358;-37
2023/03/27 06:53:58;;;;;;;;;;;2.40;99.90;;;;;;5131840;27;19992;-37
2023/03/27 06:56:24;;;;;;;;;;;2.50;99.90;;;;;;5131304;28;19923;-36
2023/03/27 06:58:51;;;;;;;;;;;2.50;99.90;;;;;;5145314;27;19923;-36
2023/03/27 07:01:18;;;;;;;;;;;2.60;99.90;;;;;;5157971;27;19967;-36
2023/03/27 07:03:46;;;;;;;;;;;2.60;99.90;;;;;;5132926;27;19976;-36
2023/03/27 07:06:12;;;;;;;;;;;2.70;99.90;;;;;;5145663;27;19927;-36
2023/03/27 07:08:39;;;;;;;;;;;2.80;99.90;;;;;;5146028;27;19931;-36
2023/03/27 07:11:06;;;;;;;;;;;2.90;99.90;;;;;;5159129;27;19976;-35
2023/03/27 07:13:32;;;;;;;;;;;3.00;99.90;;;;;;5153491;27;20022;-36
2023/03/27 07:15:59;;;;;;;;;;;3.10;99.90;;;;;;5155515;27;20800;-36
2023/03/27 07:18:26;;;;;;;;;;;3.30;99.90;;;;;;5165268;27;20427;-36
2023/03/27 07:20:54;;;;;;;;;;;3.40;99.90;;;;;;5134500;27;19927;-36
2023/03/27 07:23:20;;;;;;;;;;;3.40;99.90;;;;;;5122509;27;19976;-36
2023/03/27 07:25:48;;;;;;;;;;;3.60;99.90;;;;;;5152344;27;20437;-36
2023/03/27 07:28:17;;;;;;;;;;;3.60;99.90;;;;;;5137945;27;19923;-36
2023/03/27 07:30:43;;;;;;;;;;;3.80;99.90;;;;;;5129041;27;20323;-36
2023/03/27 07:33:11;;;;;;;;;;;3.90;99.90;;;;;;5135297;27;19996;-37
2023/03/27 07:35:40;;;;;;;;;;;4.00;99.90;;;;;;5136625;27;19924;-37
2023/03/27 07:38:09;;;;;;;;;;;4.10;99.90;;;;;;5136505;27;19931;-37
2023/03/27 07:40:37;;;;;;;;;;;4.20;99.90;;;;;;5148660;27;19934;-37
2023/03/27 07:43:05;;;;;;;;;;;4.30;99.90;;;;;;5153739;27;19976;-37
2023/03/27 07:45:32;;;;;;;;;;;4.40;99.90;;;;;;5160933;27;19927;-37
2023/03/27 07:48:04;;;;;;;;;;;4.60;99.90;;;;;;5135089;27;20382;-37
2023/03/27 07:50:30;;;;;;;;;;;4.70;99.90;;;;;;5135396;27;20367;-37
2023/03/27 07:52:58;;;;;;;;;;;4.80;99.90;;;;;;5149579;27;19927;-36
2023/03/27 07:55:28;;;;;;;;;;;4.90;99.90;;;;;;5170794;27;20243;-36
2023/03/27 07:57:55;;;;;;;;;;;5.00;99.90;;;;;;5137609;27;20267;-36
2023/03/27 08:00:23;;;;;;;;;;;5.10;99.90;;;;;;5137412;27;19923;-36
2023/03/27 08:02:50;;;;;;;;;;;5.30;99.90;;;;;;5153324;27;20004;-36
2023/03/27 08:05:17;;;;;;;;;;;5.50;99.90;;;;;;5132144;27;20276;-36
2023/03/27 08:07:47;;;;;;;;;;;5.60;99.90;;;;;;5136079;27;19928;-36
2023/03/27 08:10:17;;;;;;;;;;;5.70;99.90;;;;;;5134424;27;19924;-36
2023/03/27 08:12:45;;;;;;;;;;;5.60;99.90;;;;;;5135143;27;19975;-36
2023/03/27 08:15:11;;;;;;;;;;;5.50;99.90;;;;;;5146901;27;19950;-36
2023/03/27 08:17:38;;;;;;;;;;;5.40;99.90;;;;;;5171080;27;20388;-36
2023/03/27 08:20:08;;;;;;;;;;;5.10;99.90;;;;;;5167802;27;20339;-36
2023/03/27 08:22:35;;;;;;;;;;;4.70;99.90;;;;;;5154991;27;19982;-36
2023/03/27 08:25:03;;;;;;;;;;;4.40;99.90;;;;;;5153401;27;19923;-36
2023/03/27 08:27:30;;;;;;;;;;;4.30;99.90;;;;;;5138463;27;20358;-36
2023/03/27 08:29:58;;;;;;;;;;;4.20;99.90;;;;;;5169979;27;19930;-36
2023/03/27 08:32:25;;;;;;;;;;;4.30;99.90;;;;;;5122343;27;19928;-36
2023/03/27 08:34:52;;;;;;;;;;;4.30;99.90;;;;;;5152636;27;19975;-36
2023/03/27 08:37:19;;;;;;;;;;;4.40;99.90;;;;;;5154691;27;19923;-36
2023/03/27 08:39:45;;;;;;;;;;;4.60;99.90;;;;;;5166553;27;19927;-36
2023/03/27 08:42:14;;;;;;;;;;;4.90;99.90;;;;;;5165275;27;19923;-36
2023/03/27 08:44:41;;;;;;;;;;;5.20;99.90;;;;;;5118993;27;19930;-36
2023/03/27 08:47:11;;;;;;;;;;;5.50;99.90;;;;;;5162265;27;19981;-35
2023/03/27 08:49:38;;;;;;;;;;;5.70;99.90;;;;;;5135623;27;19923;-35
2023/03/27 08:52:05;;;;;;;;;;;5.90;99.90;;;;;;5133296;27;19972;-35
2023/03/27 08:54:32;;;;;;;;;;;6.10;99.90;;;;;;5138686;27;20010;-36
2023/03/27 08:56:59;;;;;;;;;;;6.30;99.90;;;;;;5133616;27;19924;-35
2023/03/27 08:59:27;;;;;;;;;;;6.50;99.90;;;;;;5147012;27;20307;-35
2023/03/27 09:01:54;;;;;;;;;;;6.60;99.90;;;;;;5156804;27;19923;-36
2023/03/27 09:04:26;;;;;;;;;;;6.90;99.90;;;;;;5133870;27;19923;-36
2023/03/27 09:06:55;;;;;;;;;;;7.10;99.90;;;;;;5143973;27;20343;-35
2023/03/27 09:09:49;;;;;;;;;;;7.30;99.90;;;;;;5115548;27;19923;-35
2023/03/27 09:12:19;;;;;;;;;;;7.40;99.90;;;;;;5108482;27;19923;-35
2023/03/27 09:14:46;;;;;;;;;;;7.30;99.90;;;;;;5133325;27;19992;-35
2023/03/27 09:17:14;;;;;;;;;;;7.10;99.90;;;;;;5129277;27;19927;-36
2023/03/27 09:19:44;;;;;;;;;;;7.00;99.90;;;;;;5136203;27;19927;-35
2023/03/27 09:22:12;;;;;;;;;;;6.70;99.90;;;;;;5154126;27;20370;-35
2023/03/27 09:24:39;;;;;;;;;;;6.30;99.90;;;;;;5118957;27;19933;-35
2023/03/27 09:27:11;;;;;;;;;;;6.00;99.90;;;;;;5114194;27;20375;-35
2023/03/27 09:29:38;;;;;;;;;;;6.00;99.90;;;;;;5119429;27;19923;-35
2023/03/27 09:32:04;;;;;;;;;;;6.10;99.90;;;;;;5139797;27;19927;-35
2023/03/27 09:34:32;;;;;;;;;;;6.30;99.90;;;;;;5140526;27;19924;-35
2023/03/27 09:37:01;;;;;;;;;;;6.50;99.90;;;;;;5118769;27;19923;-35
2023/03/27 09:39:28;;;;;;;;;;;6.60;99.90;;;;;;5121575;27;19954;-35
2023/03/27 09:41:57;;;;;;;;;;;6.80;99.90;;;;;;5153498;27;19923;-35
2023/03/27 09:44:25;;;;;;;;;;;7.00;99.90;;;;;;5142079;27;19962;-35
2023/03/27 09:46:53;;;;;;;;;;;7.10;99.90;;;;;;5132963;27;20015;-35
2023/03/27 09:49:20;;;;;;;;;;;7.30;99.90;;;;;;5114649;27;19928;-35
2023/03/27 09:51:47;;;;;;;;;;;7.50;99.90;;;;;;5114685;27;20401;-35
2023/03/27 09:54:16;;;;;;;;;;;7.70;99.90;;;;;;5132340;27;20370;-36
2023/03/27 09:56:45;;;;;;;;;;;7.80;99.90;;;;;;5120670;27;19942;-36
2023/03/27 09:59:19;;;;;;;;;;;7.90;99.90;;;;;;5140718;27;19931;-35
2023/03/27 10:01:46;;;;;;;;;;;8.00;99.90;;;;;;5146597;27;20304;-35
2023/03/27 10:04:14;;;;;;;;;;;8.20;99.90;;;;;;5151726;27;19927;-35
2023/03/27 10:06:43;;;;;;;;;;;8.20;99.90;;;;;;5151995;27;19923;-35
2023/03/27 10:09:12;;;;;;;;;;;8.10;99.90;;;;;;5138365;27;20305;-35
2023/03/27 10:11:40;;;;;;;;;;;8.00;99.90;;;;;;5114390;27;19963;-35
2023/03/27 10:14:09;;;;;;;;;;;7.90;99.90;;;;;;5120852;27;19959;-35
2023/03/27 10:16:38;;;;;;;;;;;7.90;99.90;;;;;;5132131;27;19970;-35
2023/03/27 10:19:05;;;;;;;;;;;8.10;99.90;;;;;;5127862;27;19923;-36
2023/03/27 10:21:32;;;;;;;;;;;8.30;99.90;;;;;;5131894;27;20340;-34
2023/03/27 10:24:00;;;;;;;;;;;8.50;99.90;;;;;;5151641;27;20384;-35
2023/03/27 10:26:27;;;;;;;;;;;8.50;99.90;;;;;;5152549;27;19930;-35
2023/03/27 10:28:58;;;;;;;;;;;8.40;99.90;;;;;;5136516;27;19986;-35
2023/03/27 10:31:26;;;;;;;;;;;8.40;99.90;;;;;;5134181;27;19923;-35
2023/03/27 10:33:53;;;;;;;;;;;8.50;99.90;;;;;;5134416;27;20010;-35
2023/03/27 10:36:20;;;;;;;;;;;8.70;99.90;;;;;;5127676;27;19923;-35
2023/03/27 10:38:50;;;;;;;;;;;8.80;99.90;;;;;;5152131;27;20362;-34
2023/03/27 10:41:17;;;;;;;;;;;9.00;99.90;;;;;;5133753;27;19923;-34
2023/03/27 10:43:44;;;;;;;;;;;9.00;99.90;;;;;;5152771;27;19927;-34
2023/03/27 10:46:13;;;;;;;;;;;9.00;99.90;;;;;;5152618;27;19930;-35
2023/03/27 10:48:41;;;;;;;;;;;9.00;99.90;;;;;;5143481;27;20184;-35
2023/03/27 10:51:19;;;;;;;;;;;9.10;99.90;;;;;;5150036;27;19969;-35
2023/03/27 10:53:47;;;;;;;;;;;9.10;99.90;;;;;;5134168;27;19945;-35
2023/03/27 10:56:16;;;;;;;;;;;9.20;99.90;;;;;;5151256;27;19923;-35
2023/03/27 10:58:43;;;;;;;;;;;9.20;99.90;;;;;;5123480;27;20394;-35
2023/03/27 11:01:11;;;;;;;;;;;9.20;99.90;;;;;;5134731;27;19927;-35
2023/03/27 11:03:41;;;;;;;;;;;9.30;99.90;;;;;;5113626;28;19971;-35
2023/03/27 11:06:09;;;;;;;;;;;9.20;99.90;;;;;;5135047;27;19930;-35
2023/03/27 11:08:36;;;;;;;;;;;9.20;99.90;;;;;;5135286;27;19923;-35
2023/03/27 11:11:04;;;;;;;;;;;9.30;99.90;;;;;;5114295;27;20000;-35
2023/03/27 11:13:32;;;;;;;;;;;9.40;99.90;;;;;;5132871;28;20389;-35
2023/03/27 11:16:01;;;;;;;;;;;9.60;99.90;;;;;;5132938;28;19924;-35
2023/03/27 11:18:28;;;;;;;;;;;9.80;99.90;;;;;;5118239;27;19934;-35
2023/03/27 11:20:58;;;;;;;;;;;10.00;99.90;;;;;;5137627;27;19942;-36
2023/03/27 11:23:28;;;;;;;;;;;9.90;99.90;;;;;;5142028;27;19939;-36
2023/03/27 11:25:58;;;;;;;;;;;9.80;99.90;;;;;;5123292;27;19923;-36
2023/03/27 11:28:26;;;;;;;;;;;9.80;99.90;;;;;;5139904;27;19931;-36
2023/03/27 11:30:54;;;;;;;;;;;9.80;99.90;;;;;;5132632;28;19923;-35
2023/03/27 11:33:31;;;;;;;;;;;10.00;99.90;;;;;;5148826;27;19924;-36
2023/03/27 11:36:00;;;;;;;;;;;10.10;99.90;;;;;;5165673;27;19923;-36
2023/03/27 11:38:30;;;;;;;;;;;10.30;99.90;;;;;;5135149;27;19944;-35
2023/03/27 11:40:56;;;;;;;;;;;10.50;99.90;;;;;;5134241;27;19927;-35
2023/03/27 11:43:23;;;;;;;;;;;10.40;99.90;;;;;;5151377;27;20011;-36
2023/03/27 11:45:53;;;;;;;;;;;10.00;99.90;;;;;;5133996;27;19924;-35
2023/03/27 11:48:26;;;;;;;;;;;9.50;99.90;;;;;;5139681;27;20197;-34
2023/03/27 11:50:53;;;;;;;;;;;9.10;99.90;;;;;;5114749;28;19978;-34
2023/03/27 11:53:29;;;;;;;;;;;8.90;99.90;;;;;;5116116;27;19923;-34
2023/03/27 11:56:02;;;;;;;;;;;8.90;99.90;;;;;;5134128;27;19988;-34
2023/03/27 11:58:31;;;;;;;;;;;9.10;99.90;;;;;;5136446;27;19931;-35
2023/03/27 12:01:00;;;;;;;;;;;9.20;99.90;;;;;;5122532;27;19930;-35
2023/03/27 12:03:47;;;;;;;;;;;9.40;99.90;;;;;;5151411;27;19930;-35
2023/03/27 12:06:16;;;;;;;;;;;9.50;99.90;;;;;;5140732;27;20101;-34
2023/03/27 12:08:49;;;;;;;;;;;9.70;99.90;;;;;;5137060;27;19983;-34
2023/03/27 12:11:16;;;;;;;;;;;9.80;99.90;;;;;;5136150;27;19931;-34
2023/03/27 12:13:49;;;;;;;;;;;10.00;99.90;;;;;;5130256;27;20390;-34
2023/03/27 12:16:20;;;;;;;;;;;10.10;99.90;;;;;;5130320;27;19923;-34
2023/03/27 12:18:49;;;;;;;;;;;10.30;99.90;;;;;;5155226;27;20340;-34
2023/03/27 12:21:18;;;;;;;;;;;10.50;99.90;;;;;;5136888;27;19950;-35
2023/03/27 12:23:56;;;;;;;;;;;10.40;99.90;;;;;;5156671;27;19927;-35
2023/03/27 12:26:27;;;;;;;;;;;9.90;99.60;;;;;;5135385;27;19928;-34
2023/03/27 12:28:57;;;;;;;;;;;9.50;99.90;;;;;;5150556;27;19927;-35
2023/03/27 12:31:30;;;;;;;;;;;9.10;99.90;;;;;;5154647;27;19923;-34
2023/03/27 12:33:59;;;;;;;;;;;9.00;99.90;;;;;;5154613;27;19924;-34
2023/03/27 12:36:26;;;;;;;;;;;9.10;99.90;;;;;;5123064;27;19971;-34
2023/03/27 12:38:53;;;;;;;;;;;9.30;99.90;;;;;;5125698;27;19988;-35
2023/03/27 12:41:21;;;;;;;;;;;9.60;99.90;;;;;;5159683;27;19927;-34
2023/03/27 12:43:48;;;;;;;;;;;9.90;99.90;;;;;;5144210;27;19984;-34
2023/03/27 12:46:16;;;;;;;;;;;10.10;99.90;;;;;;5157035;27;19927;-35
2023/03/27 12:48:46;;;;;;;;;;;10.20;99.90;;;;;;5138806;27;19924;-34
2023/03/27 12:51:14;;;;;;;;;;;10.10;99.90;;;;;;5142544;27;19923;-34
2023/03/27 12:53:47;;;;;;;;;;;9.90;99.90;;;;;;5148740;27;19984;-34
2023/03/27 12:56:23;;;;;;;;;;;9.90;99.90;;;;;;5152883;27;20027;-34
2023/03/27 12:58:51;;;;;;;;;;;10.00;99.90;;;;;;5137456;27;20377;-34
2023/03/27 13:01:23;;;;;;;;;;;10.30;97.50;;;;;;5149856;27;19923;-34
2023/03/27 13:04:00;;;;;;;;;;;10.30;98.00;;;;;;5152125;27;19927;-34
2023/03/27 13:06:31;;;;;;;;;;;10.20;97.50;;;;;;5153002;27;19923;-34
2023/03/27 13:09:02;;;;;;;;;;;10.10;97.50;;;;;;5135236;27;19923;-34
2023/03/27 13:11:36;;;;;;;;;;;10.00;97.10;;;;;;5140007;27;20299;-34
2023/03/27 13:14:35;;;;;;;;;;;10.00;96.60;;;;;;5144833;27;19923;-34
2023/03/27 13:17:06;;;;;;;;;;;9.90;98.70;;;;;;5147126;27;19976;-34
2023/03/27 13:19:38;;;;;;;;;;;9.80;96.50;;;;;;5121404;27;19923;-35
2023/03/27 13:22:11;;;;;;;;;;;9.90;99.90;;;;;;5130934;27;19939;-34
2023/03/27 13:24:45;;;;;;;;;;;10.20;99.10;;;;;;5151117;27;19923;-34
2023/03/27 13:27:17;;;;;;;;;;;10.50;98.70;;;;;;5117157;27;19931;-35
2023/03/27 13:29:47;;;;;;;;;;;10.40;98.10;;;;;;5134813;27;19976;-34
2023/03/27 13:32:31;;;;;;;;;;;9.80;98.90;;;;;;5148047;27;20030;-35
2023/03/27 13:35:03;;;;;;;;;;;9.40;99.90;;;;;;5139939;27;19963;-34
2023/03/27 13:37:47;;;;;;;;;;;9.10;99.90;;;;;;5132076;27;19971;-35
2023/03/27 13:40:25;;;;;;;;;;;8.80;99.90;;;;;;5122533;27;20439;-35
2023/03/27 13:42:55;;;;;;;;;;;8.60;99.90;;;;;;5143438;27;19923;-35
2023/03/27 13:45:23;;;;;;;;;;;8.50;99.90;;;;;;5127333;27;19972;-35
2023/03/27 13:48:07;;;;;;;;;;;8.60;99.90;;;;;;5138579;27;19967;-35
2023/03/27 13:50:43;;;;;;;;;;;8.80;99.90;;;;;;5116662;27;20010;-35
2023/03/27 13:53:19;;;;;;;;;;;9.10;99.90;;;;;;5118196;27;19972;-35
2023/03/27 13:56:04;;;;;;;;;;;9.30;99.90;;;;;;5162856;27;19954;-34
2023/03/27 13:58:37;;;;;;;;;;;9.60;99.90;;;;;;5129317;27;20370;-35
2023/03/27 14:01:20;;;;;;;;;;;9.70;99.90;;;;;;5134020;27;19924;-35
2023/03/27 14:04:02;;;;;;;;;;;9.90;99.90;;;;;;5121194;27;20375;-35
2023/03/27 14:06:43;;;;;;;;;;;10.10;99.90;;;;;;5128583;27;20321;-35
2023/03/27 14:09:12;;;;;;;;;;;10.30;99.90;;;;;;5155837;27;20041;-35
2023/03/27 14:11:51;;;;;;;;;;;10.50;99.90;;;;;;5138452;27;20059;-35
2023/03/27 14:14:26;;;;;;;;;;;10.30;99.00;;;;;;5129422;27;19968;-35
2023/03/27 14:17:10;;;;;;;;;;;10.10;99.90;;;;;;5146036;27;20242;-35
2023/03/27 14:19:52;;;;;;;;;;;10.00;99.90;;;;;;5138226;27;19923;-35
2023/03/27 14:22:22;;;;;;;;;;;9.80;99.90;;;;;;5130909;27;20324;-34
2023/03/27 14:24:50;;;;;;;;;;;9.80;99.90;;;;;;5119784;27;19924;-34
2023/03/27 14:27:17;;;;;;;;;;;10.00;99.90;;;;;;5146147;27;19966;-35
2023/03/27 14:29:48;;;;;;;;;;;10.20;99.90;;;;;;5125451;27;20005;-34
2023/03/27 14:32:16;;;;;;;;;;;10.30;99.60;;;;;;5128036;27;20010;-35
2023/03/27 14:34:45;;;;;;;;;;;10.30;98.20;;;;;;5126229;27;20314;-35
2023/03/27 14:37:28;;;;;;;;;;;10.30;98.40;;;;;;5152381;27;19934;-35
2023/03/27 14:39:55;;;;;;;;;;;10.40;98.70;;;;;;5120085;27;19976;-34